createdAt,value
2019-05-28T00:00:52.040Z,97932.62
2019-05-28T00:05:59.488Z,97928.85
2019-05-28T00:11:06.959Z,97917.55
2019-05-28T00:16:14.279Z,97910.98
2019-05-28T00:21:21.714Z,97898.89
2019-05-28T00:26:29.079Z,97894.58
2019-05-28T00:31:36.566Z,97897.23
2019-05-28T00:36:43.935Z,97882.64
2019-05-28T00:41:52.413Z,97876.56
2019-05-28T00:46:59.888Z,97869.69
2019-05-28T00:52:07.478Z,97865.63
2019-05-28T00:57:16.404Z,97856.39
2019-05-28T01:02:23.863Z,97853.24
2019-05-28T01:07:31.313Z,97846.34
2019-05-28T01:12:38.700Z,97839.04
2019-05-28T01:17:46.037Z,97839.14
2019-05-28T01:22:53.482Z,97833.16
2019-05-28T01:28:00.869Z,97832.64
2019-05-28T01:33:08.135Z,97833.16
2019-05-28T01:38:15.561Z,97833.02
2019-05-28T01:43:23.028Z,97840.50
2019-05-28T01:48:30.458Z,97832.81
2019-05-28T01:53:37.851Z,97836.26
2019-05-28T01:58:45.195Z,97827.55
2019-05-28T02:03:52.615Z,97823.50
2019-05-28T02:08:59.993Z,97819.17
2019-05-28T02:14:07.737Z,97818.70
2019-05-28T02:19:15.182Z,97813.14
2019-05-28T02:24:22.639Z,97804.87
2019-05-28T02:29:30.106Z,97808.53
2019-05-28T02:34:37.402Z,97809.05
2019-05-28T02:39:44.802Z,97805.45
2019-05-28T02:44:52.217Z,97811.00
2019-05-28T02:49:59.567Z,97810.55
2019-05-28T02:55:07.852Z,97814.55
2019-05-28T03:00:17.151Z,97815.31
2019-05-28T03:05:24.544Z,97819.36
2019-05-28T03:11:01.608Z,97822.28
2019-05-28T03:15:51.999Z,97828.20
2019-05-28T03:21:02.818Z,97837.78
2019-05-28T03:26:10.303Z,97824.19
2019-05-28T03:31:17.575Z,97829.97
2019-05-28T03:36:29.439Z,97831.34
2019-05-28T03:41:36.861Z,97830.31
2019-05-28T03:46:44.179Z,97828.52
2019-05-28T03:51:51.608Z,97830.84
2019-05-28T03:56:58.915Z,97831.20
2019-05-28T04:02:20.631Z,97830.18
2019-05-28T04:07:15.267Z,97829.19
2019-05-28T04:12:22.599Z,97835.72
2019-05-28T04:17:30.746Z,97839.81
2019-05-28T04:22:38.161Z,97834.60
2019-05-28T04:27:45.522Z,97840.89
2019-05-28T04:32:52.943Z,97843.29
2019-05-28T04:38:00.227Z,97831.67
2019-05-28T04:43:07.629Z,97832.41
2019-05-28T04:48:15.049Z,97833.89
2019-05-28T04:53:22.351Z,97830.51
2019-05-28T04:58:29.783Z,97829.73
2019-05-28T05:03:37.191Z,97833.80
2019-05-28T05:08:44.740Z,97831.38
2019-05-28T05:13:52.144Z,97832.51
2019-05-28T05:18:59.585Z,97836.12
2019-05-28T05:24:06.989Z,97841.89
2019-05-28T05:29:14.586Z,97841.18
2019-05-28T05:34:21.963Z,97837.23
2019-05-28T05:39:29.552Z,97843.48
2019-05-28T05:44:37.013Z,97847.41
2019-05-28T05:49:44.552Z,97848.17
2019-05-28T05:54:51.868Z,97848.98
2019-05-28T05:59:59.219Z,97859.57
2019-05-28T06:05:06.860Z,97855.07
2019-05-28T06:10:14.461Z,97860.33
2019-05-28T06:15:21.935Z,97862.77
2019-05-28T06:20:29.344Z,97865.12
2019-05-28T06:25:36.796Z,97871.23
2019-05-28T06:30:44.221Z,97876.66
2019-05-28T06:35:51.754Z,97882.49
2019-05-28T06:40:59.196Z,97878.18
2019-05-28T06:46:06.628Z,97880.56
2019-05-28T06:51:13.970Z,97889.45
2019-05-28T06:56:22.104Z,97889.10
2019-05-28T07:01:29.460Z,97890.41
2019-05-28T07:06:36.891Z,97892.89
2019-05-28T07:11:44.260Z,97900.72
2019-05-28T07:16:53.653Z,97905.48
2019-05-28T07:22:00.672Z,97906.97
2019-05-28T07:27:07.955Z,97909.06
2019-05-28T07:32:15.384Z,97922.22
2019-05-28T07:37:22.635Z,97923.95
2019-05-28T07:42:33.004Z,97928.97
2019-05-28T07:47:39.134Z,97932.09
2019-05-28T07:52:46.519Z,97931.34
2019-05-28T08:04:12.206Z,97938.19
2019-05-28T08:09:19.589Z,97951.64
2019-05-28T08:14:27.047Z,97949.73
2019-05-28T08:19:34.380Z,97947.43
2019-05-28T08:24:41.773Z,97952.55
2019-05-28T08:29:49.160Z,97951.08
2019-05-28T08:35:05.671Z,97953.92
2019-05-28T08:40:09.540Z,97948.92
2019-05-28T08:45:17.932Z,97950.77
2019-05-28T08:50:34.401Z,97961.46
2019-05-28T08:55:34.613Z,97961.58
2019-05-28T09:00:45.142Z,97960.33
2019-05-28T09:05:52.550Z,97957.11
2019-05-28T09:10:59.890Z,97960.64
2019-05-28T09:16:07.330Z,97964.28
2019-05-28T09:21:14.723Z,97963.96
2019-05-28T09:26:22.101Z,97960.36
2019-05-28T09:31:29.400Z,97971.47
2019-05-28T09:36:36.872Z,97962.50
2019-05-28T09:41:44.300Z,97956.08
2019-05-28T09:46:51.732Z,97969.21
2019-05-28T09:51:58.975Z,97974.39
2019-05-28T09:57:06.324Z,97980.86
2019-05-28T10:02:13.919Z,97981.80
2019-05-28T10:07:21.370Z,97989.77
2019-05-28T10:12:28.792Z,97995.11
2019-05-28T10:17:36.232Z,97988.87
2019-05-28T10:22:43.624Z,97990.59
2019-05-28T10:28:00.970Z,97997.81
2019-05-28T10:33:00.278Z,97997.23
2019-05-28T10:38:14.474Z,98008.10
2019-05-28T10:43:16.685Z,98015.08
2019-05-28T10:48:24.103Z,98013.45
2019-05-28T10:53:31.437Z,98006.90
2019-05-28T10:58:38.715Z,98003.52
2019-05-28T11:03:47.205Z,98006.59
2019-05-28T11:08:54.867Z,98014.34
2019-05-28T11:14:02.287Z,98016.44
2019-05-28T11:19:09.684Z,98019.20
2019-05-28T11:24:17.019Z,98014.41
2019-05-28T11:29:24.295Z,98011.05
2019-05-28T11:34:32.704Z,98010.13
2019-05-28T11:39:40.140Z,98004.05
2019-05-28T11:44:47.576Z,98013.81
2019-05-28T11:49:55.029Z,98013.52
2019-05-28T11:55:02.522Z,98019.87
2019-05-28T12:00:10.964Z,98003.67
2019-05-28T12:05:19.096Z,98010.38
2019-05-28T12:10:27.270Z,98012.22
2019-05-28T12:15:34.718Z,98010.64
2019-05-28T12:20:42.073Z,98009.70
2019-05-28T12:25:49.474Z,98011.73
2019-05-28T12:30:58.018Z,98008.86
2019-05-28T12:36:05.499Z,98006.11
2019-05-28T12:41:12.913Z,98010.50
2019-05-28T12:46:20.242Z,98012.03
2019-05-28T12:51:27.551Z,98005.21
2019-05-28T12:56:34.872Z,98012.05
2019-05-28T13:01:42.294Z,98010.75
2019-05-28T13:06:49.671Z,98014.25
2019-05-28T13:11:57.039Z,98016.08
2019-05-28T13:17:04.437Z,98015.33
2019-05-28T13:22:11.876Z,98001.98
2019-05-28T13:27:19.600Z,98007.70
2019-05-28T13:32:26.932Z,98007.34
2019-05-28T13:37:34.228Z,98006.73
2019-05-28T13:42:41.670Z,98001.83
2019-05-28T13:47:49.114Z,98007.98
2019-05-28T13:52:56.526Z,98008.06
2019-05-28T13:58:03.984Z,98008.77
2019-05-28T14:03:11.515Z,98004.03
2019-05-28T14:08:18.767Z,97998.27
2019-05-28T14:13:26.081Z,98007.31
2019-05-28T14:18:33.457Z,98000.27
2019-05-28T14:23:40.886Z,97996.99
2019-05-28T14:28:48.188Z,98008.04
2019-05-28T14:33:55.627Z,98011.77
2019-05-28T14:39:04.013Z,98018.48
2019-05-28T14:44:11.615Z,98019.53
2019-05-28T14:49:18.966Z,98020.44
2019-05-28T14:54:26.374Z,98025.83
2019-05-28T14:59:33.810Z,98025.41
2019-05-28T15:04:41.223Z,98036.34
2019-05-28T15:09:48.477Z,98037.32
2019-05-28T15:14:55.780Z,98046.27
2019-05-28T15:20:03.222Z,98051.91
2019-05-28T15:25:10.967Z,98056.97
2019-05-28T15:30:18.754Z,98064.17
2019-05-28T15:35:26.181Z,98071.08
2019-05-28T15:40:33.514Z,98073.57
2019-05-28T15:45:40.930Z,98071.18
2019-05-28T15:50:48.420Z,98070.36
2019-05-28T15:55:55.854Z,98080.22
2019-05-28T16:01:03.166Z,98076.23
2019-05-28T16:06:10.541Z,98085.02
2019-05-28T16:11:17.870Z,98092.30
2019-05-28T16:16:25.287Z,98094.52
2019-05-28T16:21:32.669Z,98104.52
2019-05-28T16:26:40.083Z,98107.12
2019-05-28T16:31:47.536Z,98112.31
2019-05-28T16:36:54.944Z,98118.22
2019-05-28T16:42:02.326Z,98120.48
2019-05-28T16:47:16.963Z,98126.41
2019-05-28T16:52:18.816Z,98125.83
2019-05-28T16:57:26.249Z,98131.61
2019-05-28T17:02:33.529Z,98142.45
2019-05-28T17:07:40.884Z,98139.83
2019-05-28T17:12:48.153Z,98145.69
2019-05-28T17:17:55.530Z,98155.45
2019-05-28T17:23:02.889Z,98156.72
2019-05-28T17:28:10.309Z,98158.59
2019-05-28T17:33:17.659Z,98160.15
2019-05-28T17:38:25.219Z,98164.84
2019-05-28T17:43:32.714Z,98168.23
2019-05-28T17:48:40.152Z,98180.41
2019-05-28T17:53:47.592Z,98192.20
2019-05-28T17:58:55.056Z,98192.75
2019-05-28T18:04:02.505Z,98195.70
2019-05-28T18:09:11.403Z,98192.67
2019-05-28T18:14:18.679Z,98192.83
2019-05-28T18:19:26.124Z,98200.64
2019-05-28T18:24:33.473Z,98206.00
2019-05-28T18:29:40.834Z,98208.66
2019-05-28T18:34:48.283Z,98209.18
2019-05-28T18:39:55.681Z,98218.02
2019-05-28T18:45:03.128Z,98227.06
2019-05-28T18:50:12.212Z,98220.96
2019-05-28T18:55:22.973Z,98235.39
2019-05-28T19:00:28.963Z,98240.50
2019-05-28T19:05:36.554Z,98249.31
2019-05-28T19:10:43.921Z,98255.55
2019-05-28T19:15:51.437Z,98262.71
2019-05-28T19:20:58.869Z,98270.60
2019-05-28T19:26:06.293Z,98283.05
2019-05-28T19:31:13.963Z,98287.11
2019-05-28T19:36:21.722Z,98300.66
2019-05-28T19:41:29.144Z,98295.31
2019-05-28T19:46:36.570Z,98299.24
2019-05-28T19:51:43.974Z,98305.65
2019-05-28T19:56:51.441Z,98304.72
2019-05-28T20:01:58.896Z,98309.59
2019-05-28T20:07:06.411Z,98322.72
2019-05-28T20:12:13.687Z,98321.50
2019-05-28T20:17:21.121Z,98333.92
2019-05-28T20:22:28.504Z,98345.40
2019-05-28T20:27:35.959Z,98358.26
2019-05-28T20:32:43.393Z,98363.84
2019-05-28T20:37:50.713Z,98366.20
2019-05-28T20:42:58.561Z,98370.75
2019-05-28T20:48:06.706Z,98379.67
2019-05-28T20:53:14.386Z,98384.86
2019-05-28T20:58:21.708Z,98397.55
2019-05-28T21:03:29.122Z,98404.42
2019-05-28T21:08:36.501Z,98406.78
2019-05-28T21:13:43.873Z,98419.00
2019-05-28T21:18:51.196Z,98423.86
2019-05-28T21:23:58.532Z,98427.80
2019-05-28T21:29:06.011Z,98429.24
2019-05-28T21:34:13.290Z,98437.59
2019-05-28T21:39:20.614Z,98440.51
2019-05-28T21:44:28.154Z,98442.55
2019-05-28T21:49:35.460Z,98444.03
2019-05-28T21:54:42.765Z,98451.45
2019-05-28T21:59:50.482Z,98455.34
2019-05-28T22:05:02.047Z,98450.88
2019-05-28T22:10:08.581Z,98469.34
2019-05-28T22:15:16.513Z,98469.59
2019-05-28T22:20:23.831Z,98473.45
2019-05-28T22:25:31.153Z,98476.66
2019-05-28T22:30:38.434Z,98481.78
2019-05-28T22:35:45.910Z,98483.81
2019-05-28T22:40:53.221Z,98483.56
2019-05-28T22:46:01.288Z,98482.04
2019-05-28T22:51:09.832Z,98484.55
2019-05-28T22:56:17.205Z,98485.53
2019-05-28T23:01:24.605Z,98492.30
2019-05-28T23:06:31.965Z,98497.69
2019-05-28T23:11:43.302Z,98493.14
2019-05-28T23:16:50.653Z,98495.91
2019-05-28T23:21:58.079Z,98501.17
2019-05-28T23:27:05.556Z,98516.33
2019-05-28T23:32:12.976Z,98520.51
2019-05-28T23:37:20.371Z,98525.01
2019-05-28T23:42:27.834Z,98525.38
2019-05-28T23:47:35.155Z,98525.44
2019-05-28T23:52:42.592Z,98540.89
2019-05-28T23:57:49.928Z,98549.86
